Time;durP1;ratioP1;P1;durP2;ratioP2;P2;SDS_P1;SDS_P2;PMS_P1;PMS_P2;Temp;Humidity;BMP_temperature;BMP_pressure;BME280_temperature;BME280_humidity;BME280_pressure;Samples;Min_cycle;Max_cycle;Signal;HPM_P1;HPM_P2
2022/05/30 00:01:17;;;;;;;9.20;2.05;;;;;;;10.11;100.00;100248.91;5254768;28;20089;-71
2022/05/30 00:03:48;;;;;;;13.18;2.33;;;;;;;10.15;100.00;100250.53;5250077;28;20020;-71
2022/05/30 00:06:21;;;;;;;8.60;2.00;;;;;;;10.19;100.00;100249.47;5253187;28;20425;-71
2022/05/30 00:08:51;;;;;;;5.63;1.70;;;;;;;10.16;100.00;100250.44;5239927;28;20078;-70
2022/05/30 00:11:23;;;;;;;11.48;1.85;;;;;;;10.26;100.00;100251.78;5246245;28;20044;-71
2022/05/30 00:13:53;;;;;;;8.73;1.88;;;;;;;10.25;100.00;100252.72;5251245;28;20036;-72
2022/05/30 00:16:24;;;;;;;7.90;1.70;;;;;;;10.21;100.00;100248.53;5248555;28;20505;-71
2022/05/30 00:18:54;;;;;;;5.03;1.50;;;;;;;10.26;100.00;100251.78;5249189;28;20036;-71
2022/05/30 00:21:25;;;;;;;8.87;2.20;;;;;;;10.25;100.00;100249.22;5247580;28;20028;-71
2022/05/30 00:23:56;;;;;;;9.65;1.90;;;;;;;10.38;100.00;100250.47;5249304;28;20271;-71
2022/05/30 00:26:26;;;;;;;9.07;2.05;;;;;;;10.34;100.00;100254.09;5248300;28;20470;-71
2022/05/30 00:28:56;;;;;;;9.57;1.85;;;;;;;10.30;100.00;100258.59;5241847;28;20363;-71
2022/05/30 00:31:27;;;;;;;9.50;1.77;;;;;;;10.20;100.00;100257.25;5247974;28;20355;-71
2022/05/30 00:33:57;;;;;;;8.88;1.90;;;;;;;10.05;100.00;100251.78;5248802;28;20036;-72
2022/05/30 00:36:27;;;;;;;7.93;1.95;;;;;;;10.23;100.00;100257.16;5248890;28;20043;-71
2022/05/30 00:38:58;;;;;;;8.43;1.90;;;;;;;10.35;100.00;100259.25;5248741;28;20621;-71
2022/05/30 00:41:28;;;;;;;11.52;2.35;;;;;;;10.27;100.00;100260.47;5244660;28;20031;-71
2022/05/30 00:43:58;;;;;;;5.95;1.92;;;;;;;10.30;100.00;100257.72;5250505;28;20111;-72
2022/05/30 00:46:29;;;;;;;10.00;2.05;;;;;;;10.32;100.00;100255.94;5252579;28;20027;-71
2022/05/30 00:49:02;;;;;;;9.70;2.10;;;;;;;10.41;100.00;100255.56;5252961;28;20032;-71
2022/05/30 00:51:45;;;;;;;6.28;1.75;;;;;;;10.46;100.00;100258.81;5252005;28;20429;-71
2022/05/30 00:54:20;;;;;;;6.78;1.90;;;;;;;10.31;100.00;100252.44;5247017;28;20032;-71
2022/05/30 00:56:55;;;;;;;7.32;1.77;;;;;;;10.39;100.00;100244.31;5241560;28;20677;-71
2022/05/30 00:59:26;;;;;;;8.80;2.35;;;;;;;10.21;100.00;100248.53;5244884;28;21613;-71
2022/05/30 01:01:56;;;;;;;9.63;1.83;;;;;;;10.29;100.00;100246.44;5251306;28;20127;-71
2022/05/30 01:07:15;;;;;;;7.78;2.22;;;;;;;10.55;100.00;100248.00;5246745;28;20274;-71
2022/05/30 01:09:46;;;;;;;8.43;1.80;;;;;;;10.34;100.00;100246.28;5247340;28;20029;-71
2022/05/30 01:12:16;;;;;;;11.15;2.30;;;;;;;10.28;100.00;100246.50;5250823;28;20326;-71
2022/05/30 01:14:48;;;;;;;10.35;2.28;;;;;;;10.09;100.00;100243.78;5250900;28;20557;-71
2022/05/30 01:17:20;;;;;;;9.35;2.08;;;;;;;10.17;100.00;100252.13;5253926;28;20382;-72
2022/05/30 01:20:05;;;;;;;9.77;2.58;;;;;;;10.13;100.00;100249.72;5251285;28;20052;-71
2022/05/30 01:23:01;;;;;;;9.27;2.20;;;;;;;10.17;100.00;100240.88;5251706;28;20081;-71
2022/05/30 01:25:51;;;;;;;11.90;2.25;;;;;;;10.19;100.00;100225.97;5250897;28;20028;-71
2022/05/30 01:28:22;;;;;;;6.85;1.92;;;;;;;10.27;100.00;100236.97;5242102;28;20731;-71
2022/05/30 01:30:52;;;;;;;7.20;2.10;;;;;;;10.32;100.00;100235.03;5249384;28;20032;-71
2022/05/30 01:33:22;;;;;;;10.77;2.20;;;;;;;10.31;100.00;100231.56;5252484;28;20278;-71
2022/05/30 01:35:53;;;;;;;11.75;2.80;;;;;;;10.39;100.00;100236.47;5251418;28;20094;-71
2022/05/30 01:38:24;;;;;;;7.60;2.07;;;;;;;10.50;100.00;100229.06;5252586;28;20039;-71
2022/05/30 01:40:56;;;;;;;11.32;2.35;;;;;;;10.45;100.00;100231.00;5246450;28;20791;-71
2022/05/30 01:43:27;;;;;;;10.90;2.53;;;;;;;10.65;100.00;100231.91;5249164;28;20147;-71
2022/05/30 01:46:04;;;;;;;11.93;2.70;;;;;;;10.66;100.00;100240.59;5251916;28;20031;-71
2022/05/30 01:48:34;;;;;;;12.68;3.10;;;;;;;10.64;100.00;100234.56;5250715;28;20036;-71
2022/05/30 01:51:05;;;;;;;11.90;2.78;;;;;;;10.55;100.00;100222.72;5252697;28;20504;-71
2022/05/30 01:53:35;;;;;;;9.70;2.55;;;;;;;10.38;100.00;100225.16;5250686;28;20436;-71
2022/05/30 01:56:05;;;;;;;12.55;2.65;;;;;;;10.44;100.00;100224.94;5252222;28;20519;-70
2022/05/30 01:58:36;;;;;;;10.30;2.70;;;;;;;10.45;100.00;100228.38;5250459;28;20050;-71
2022/05/30 02:01:15;;;;;;;14.65;2.85;;;;;;;10.58;100.00;100226.97;5252724;28;20451;-72
2022/05/30 02:03:46;;;;;;;14.23;2.85;;;;;;;10.41;100.00;100218.97;5247148;28;20275;-71
2022/05/30 02:06:16;;;;;;;10.68;3.05;;;;;;;10.36;100.00;100218.31;5251128;28;20405;-71
2022/05/30 02:08:48;;;;;;;8.38;2.95;;;;;;;10.20;100.00;100225.91;5251494;28;20029;-71
2022/05/30 02:11:18;;;;;;;13.18;3.00;;;;;;;10.23;100.00;100219.72;5250866;28;20028;-71
2022/05/30 02:13:49;;;;;;;13.25;3.20;;;;;;;10.22;100.00;100231.06;5253119;28;20025;-71
2022/05/30 02:19:09;;;;;;;11.85;3.05;;;;;;;10.30;100.00;100226.38;5257257;28;20282;-71
2022/05/30 02:21:39;;;;;;;12.80;2.80;;;;;;;10.32;100.00;100220.19;5253898;28;20029;-71
2022/05/30 02:24:09;;;;;;;12.82;2.90;;;;;;;10.39;100.00;100223.41;5256623;28;20028;-71
2022/05/30 02:26:40;;;;;;;11.43;2.42;;;;;;;10.22;100.00;100223.25;5253231;28;20150;-71
2022/05/30 02:29:11;;;;;;;13.05;3.50;;;;;;;10.24;100.00;100231.88;5250406;28;20028;-70
2022/05/30 02:31:42;;;;;;;10.50;2.83;;;;;;;10.30;100.00;100221.16;5251291;28;20307;-71
2022/05/30 02:37:01;;;;;;;9.32;2.45;;;;;;;10.35;100.00;100227.91;5252826;28;20220;-71
2022/05/30 02:39:31;;;;;;;14.20;2.80;;;;;;;10.38;100.00;100225.16;5250201;28;20032;-71
2022/05/30 02:42:02;;;;;;;10.15;2.60;;;;;;;10.32;100.00;100235.03;5251375;28;20040;-71
2022/05/30 02:44:33;;;;;;;13.18;2.75;;;;;;;10.35;100.00;100219.25;5252977;28;20512;-71
2022/05/30 02:47:04;;;;;;;17.08;3.22;;;;;;;10.29;100.00;100222.94;5255308;28;20059;-71
2022/05/30 02:49:35;;;;;;;12.80;2.92;;;;;;;10.39;100.00;100228.66;5253612;28;20460;-71
2022/05/30 02:52:05;;;;;;;12.93;2.65;;;;;;;10.29;100.00;100230.78;5255672;28;20059;-72
2022/05/30 02:54:35;;;;;;;14.88;2.65;;;;;;;10.25;100.00;100225.72;5253673;28;20036;-71
2022/05/30 02:57:06;;;;;;;15.15;2.90;;;;;;;10.39;100.00;100229.50;5254983;28;20020;-71
2022/05/30 02:59:37;;;;;;;13.38;2.67;;;;;;;10.31;100.00;100233.34;5245606;28;20074;-71
2022/05/30 03:02:07;;;;;;;10.10;2.50;;;;;;;10.35;100.00;100229.69;5253968;28;20058;-72
2022/05/30 03:04:38;;;;;;;11.30;3.30;;;;;;;10.37;100.00;100233.09;5252946;28;20115;-71
2022/05/30 03:07:08;;;;;;;10.25;2.50;;;;;;;10.32;100.00;100232.44;5253966;28;20257;-71
2022/05/30 03:09:38;;;;;;;8.05;2.10;;;;;;;10.41;100.00;100237.25;5250102;28;20021;-71
2022/05/30 03:12:09;;;;;;;10.87;2.17;;;;;;;10.41;100.00;100232.91;5252369;28;20020;-71
2022/05/30 03:14:39;;;;;;;11.32;2.47;;;;;;;10.38;100.00;100224.34;5251666;28;20387;-72
2022/05/30 03:17:09;;;;;;;8.27;2.30;;;;;;;10.50;100.00;100234.28;5255240;28;20039;-71
2022/05/30 03:19:40;;;;;;;10.30;2.20;;;;;;;10.33;100.00;100236.75;5252185;28;20509;-71
2022/05/30 03:22:10;;;;;;;10.73;2.23;;;;;;;10.29;100.00;100240.34;5255638;28;20790;-71
2022/05/30 03:24:40;;;;;;;6.57;2.17;;;;;;;10.44;100.00;100239.75;5252400;28;20759;-72
2022/05/30 03:27:10;;;;;;;10.70;1.75;;;;;;;10.35;100.00;100246.19;5254745;28;20697;-71
2022/05/30 03:29:41;;;;;;;12.77;2.00;;;;;;;10.40;100.00;100246.88;5245836;28;20055;-72
2022/05/30 03:32:11;;;;;;;10.85;1.88;;;;;;;10.24;100.00;100243.19;5252509;28;20027;-71
2022/05/30 03:34:41;;;;;;;8.38;1.70;;;;;;;10.20;100.00;100251.19;5250582;28;20040;-71
2022/05/30 03:37:11;;;;;;;9.00;1.83;;;;;;;10.25;100.00;100244.00;5251154;28;20028;-71
2022/05/30 03:39:41;;;;;;;8.33;1.50;;;;;;;10.22;100.00;100257.19;5247915;28;20033;-71
2022/05/30 03:42:14;;;;;;;8.93;1.58;;;;;;;10.22;100.00;100255.44;5251573;28;20278;-72
2022/05/30 03:44:45;;;;;;;4.70;1.33;;;;;;;10.28;100.00;100251.72;5247877;28;20526;-71
2022/05/30 03:47:15;;;;;;;9.43;1.67;;;;;;;10.20;100.00;100253.78;5254616;28;20032;-71
2022/05/30 03:49:45;;;;;;;4.28;1.30;;;;;;;10.17;100.00;100251.31;5243578;28;20031;-71
2022/05/30 03:52:16;;;;;;;7.32;1.55;;;;;;;9.99;100.00;100252.81;5250988;28;20140;-71
2022/05/30 03:54:46;;;;;;;6.78;1.50;;;;;;;10.24;100.00;100253.63;5254609;28;20042;-71
2022/05/30 03:57:17;;;;;;;5.22;1.17;;;;;;;10.04;100.00;100250.06;5250716;28;20024;-71
2022/05/30 03:59:48;;;;;;;8.00;1.40;;;;;;;10.13;100.00;100252.34;5253918;28;20020;-71
2022/05/30 04:02:18;;;;;;;7.22;1.52;;;;;;;10.15;100.00;100253.13;5250921;28;20193;-71
2022/05/30 04:04:48;;;;;;;7.82;1.52;;;;;;;10.26;100.00;100256.16;5254348;28;20023;-71
2022/05/30 04:07:19;;;;;;;6.72;1.60;;;;;;;10.12;100.00;100264.53;5250656;28;20078;-72
2022/05/30 04:09:49;;;;;;;8.75;1.52;;;;;;;10.12;100.00;100261.94;5246303;28;20044;-71
2022/05/30 04:12:21;;;;;;;9.20;1.45;;;;;;;10.29;100.00;100266.47;5250775;28;20312;-71
2022/05/30 04:14:56;;;;;;;7.30;1.60;;;;;;;10.37;100.00;100269.66;5252631;28;20036;-71
2022/05/30 04:17:27;;;;;;;7.90;1.27;;;;;;;10.26;100.00;100266.59;5252603;28;20032;-71
2022/05/30 04:19:57;;;;;;;8.80;1.52;;;;;;;10.21;100.00;100268.56;5247711;28;20454;-72
2022/05/30 04:22:29;;;;;;;9.43;1.70;;;;;;;10.47;100.00;100260.53;5252529;28;20070;-72
2022/05/30 04:24:59;;;;;;;10.32;1.50;;;;;;;10.61;100.00;100264.31;5252788;28;20062;-71
2022/05/30 04:27:30;;;;;;;9.65;1.85;;;;;;;10.34;100.00;100267.16;5252510;28;20063;-71
2022/05/30 04:30:00;;;;;;;11.30;1.67;;;;;;;10.60;100.00;100272.19;5248111;28;20039;-72
2022/05/30 04:32:30;;;;;;;11.20;1.70;;;;;;;10.33;100.00;100271.53;5253164;28;20424;-72
2022/05/30 04:35:01;;;;;;;10.63;1.77;;;;;;;10.59;100.00;100273.09;5252121;28;20024;-71
2022/05/30 04:37:31;;;;;;;10.38;1.95;;;;;;;10.47;100.00;100286.66;5250756;28;20029;-71
2022/05/30 04:40:03;;;;;;;14.07;1.98;;;;;;;10.54;100.00;100283.72;5247289;28;20120;-71
2022/05/30 04:42:33;;;;;;;9.55;1.95;;;;;;;10.62;100.00;100281.69;5248754;28;20410;-71
2022/05/30 04:45:04;;;;;;;14.45;2.00;;;;;;;10.51;100.00;100280.41;5253010;28;20127;-71
2022/05/30 04:47:36;;;;;;;10.40;1.88;;;;;;;10.20;100.00;100290.34;5251786;28;20029;-71
2022/05/30 04:50:09;;;;;;;9.48;1.83;;;;;;;10.51;100.00;100283.84;5253807;28;20043;-71
2022/05/30 04:52:41;;;;;;;7.45;2.00;;;;;;;10.47;100.00;100291.88;5250969;28;20027;-71
2022/05/30 04:55:14;;;;;;;9.52;2.60;;;;;;;10.56;100.00;100291.53;5254364;28;20031;-71
2022/05/30 04:57:47;;;;;;;10.40;1.70;;;;;;;10.74;100.00;100291.63;5246430;28;20401;-71
2022/05/30 05:00:22;;;;;;;9.32;1.70;;;;;;;10.80;100.00;100295.75;5254390;28;20031;-71
2022/05/30 05:02:53;;;;;;;7.97;1.77;;;;;;;10.45;100.00;100294.56;5251723;28;20311;-71
2022/05/30 05:05:23;;;;;;;10.85;2.15;;;;;;;10.58;100.00;100292.31;5252532;28;20147;-71
2022/05/30 05:08:04;;;;;;;10.00;2.15;;;;;;;10.68;100.00;100297.09;5249776;28;20123;-72
2022/05/30 05:10:48;;;;;;;6.07;1.73;;;;;;;10.64;100.00;100294.66;5244001;28;20028;-71
2022/05/30 05:13:18;;;;;;;10.38;2.20;;;;;;;10.86;100.00;100305.97;5248158;28;20032;-71
2022/05/30 05:15:48;;;;;;;8.95;1.85;;;;;;;11.05;100.00;100303.38;5247192;28;20247;-71
2022/05/30 05:18:19;;;;;;;8.88;1.90;;;;;;;11.02;100.00;100310.50;5252663;28;20431;-71
2022/05/30 05:20:49;;;;;;;11.48;2.00;;;;;;;10.88;100.00;100304.13;5247459;28;20017;-72
2022/05/30 05:23:19;;;;;;;10.20;1.83;;;;;;;10.91;100.00;100301.41;5245975;28;20029;-72
2022/05/30 05:25:50;;;;;;;11.15;2.20;;;;;;;10.83;100.00;100303.47;5253162;28;20289;-71
2022/05/30 05:28:20;;;;;;;6.35;2.10;;;;;;;10.83;100.00;100306.94;5248734;28;20033;-71
2022/05/30 05:30:51;;;;;;;13.60;2.13;;;;;;;10.95;100.00;100306.44;5253011;28;20032;-72
2022/05/30 05:33:21;;;;;;;9.87;2.23;;;;;;;10.96;100.00;100307.28;5250671;28;20039;-71
2022/05/30 05:35:51;;;;;;;9.45;2.22;;;;;;;11.02;100.00;100311.34;5250161;28;20267;-72
2022/05/30 05:38:22;;;;;;;7.95;1.85;;;;;;;10.88;100.00;100310.19;5249562;28;20028;-71
2022/05/30 05:40:52;;;;;;;10.25;2.03;;;;;;;10.98;100.00;100311.53;5243031;28;20086;-71
2022/05/30 05:43:23;;;;;;;9.45;2.30;;;;;;;11.07;100.00;100311.16;5252248;28;20012;-72
2022/05/30 05:45:53;;;;;;;12.27;2.28;;;;;;;11.12;100.00;100315.28;5253120;28;20024;-72
2022/05/30 05:48:23;;;;;;;7.28;1.85;;;;;;;10.81;100.00;100313.13;5254544;28;20028;-72
2022/05/30 05:50:53;;;;;;;9.90;1.87;;;;;;;10.78;100.00;100321.09;5252846;28;20020;-72
2022/05/30 05:53:23;;;;;;;11.83;2.60;;;;;;;10.90;100.00;100313.63;5254637;28;20274;-72
2022/05/30 05:55:54;;;;;;;7.80;2.03;;;;;;;11.08;100.00;100316.31;5253961;28;20266;-72
2022/05/30 05:58:24;;;;;;;7.65;2.00;;;;;;;11.19;100.00;100321.97;5254613;28;20313;-72
2022/05/30 06:00:54;;;;;;;12.17;2.27;;;;;;;11.20;100.00;100320.19;5255310;28;20028;-72
2022/05/30 06:03:24;;;;;;;10.93;2.10;;;;;;;11.19;100.00;100323.72;5253809;28;20304;-71
2022/05/30 06:05:55;;;;;;;10.90;2.00;;;;;;;11.11;100.00;100317.97;5254238;28;20620;-72
2022/05/30 06:08:25;;;;;;;8.23;1.73;;;;;;;11.19;98.97;100321.97;5251341;28;20504;-72
2022/05/30 06:11:11;;;;;;;8.38;1.73;;;;;;;11.30;99.13;100319.72;5249457;28;20305;-72
2022/05/30 06:13:47;;;;;;;8.80;2.00;;;;;;;11.27;100.00;100317.25;5252105;28;20032;-72
2022/05/30 06:16:26;;;;;;;8.98;1.90;;;;;;;11.21;98.95;100324.50;5249622;28;20041;-72
2022/05/30 06:18:59;;;;;;;12.82;2.13;;;;;;;10.98;99.06;100315.91;5255180;28;20032;-71
2022/05/30 06:21:32;;;;;;;12.65;1.98;;;;;;;10.93;99.44;100323.09;5255675;28;20082;-72
2022/05/30 06:24:05;;;;;;;14.15;1.90;;;;;;;10.84;99.42;100320.88;5254715;28;20047;-72
2022/05/30 06:26:35;;;;;;;9.75;1.80;;;;;;;10.79;100.00;100321.06;5253789;28;20073;-71
2022/05/30 06:29:06;;;;;;;8.93;1.70;;;;;;;10.92;100.00;100327.50;5254310;28;20028;-72
2022/05/30 06:31:36;;;;;;;7.53;2.03;;;;;;;11.21;99.01;100325.34;5254642;28;20697;-73
2022/05/30 06:34:07;;;;;;;10.60;2.00;;;;;;;11.39;98.00;100328.94;5254095;28;20375;-72
2022/05/30 06:36:40;;;;;;;9.70;1.50;;;;;;;11.66;96.76;100323.44;5256114;28;20794;-73
2022/05/30 06:39:11;;;;;;;7.25;1.77;;;;;;;11.59;96.34;100318.53;5253206;28;20024;-72
2022/05/30 06:41:41;;;;;;;7.93;1.63;;;;;;;11.75;96.75;100323.00;5246941;28;20037;-73
2022/05/30 06:44:12;;;;;;;11.60;1.88;;;;;;;12.09;94.60;100331.03;5255294;28;20081;-73
2022/05/30 06:46:42;;;;;;;8.80;1.85;;;;;;;12.05;92.57;100326.88;5244982;28;20044;-73
2022/05/30 06:49:12;;;;;;;7.82;2.10;;;;;;;11.96;92.31;100326.44;5255716;28;20028;-73
2022/05/30 06:51:44;;;;;;;9.40;1.98;;;;;;;11.68;92.86;100332.06;5252787;28;20418;-72
2022/05/30 06:54:14;;;;;;;8.65;2.10;;;;;;;11.80;93.15;100331.50;5248630;28;20285;-72
2022/05/30 06:59:34;;;;;;;9.50;2.20;;;;;;;11.84;91.72;100340.94;5255580;28;20059;-73
2022/05/30 07:02:05;;;;;;;9.55;2.00;;;;;;;11.66;94.45;100339.13;5252774;28;20059;-72
2022/05/30 07:04:36;;;;;;;8.27;2.10;;;;;;;12.05;92.11;100342.59;5255454;28;20027;-72
2022/05/30 07:07:07;;;;;;;7.50;1.60;;;;;;;12.21;89.91;100338.34;5252086;28;20020;-72
2022/05/30 07:09:38;;;;;;;8.30;1.63;;;;;;;12.40;89.29;100340.97;5252538;28;20047;-73
2022/05/30 07:12:09;;;;;;;10.20;1.90;;;;;;;12.32;87.11;100341.31;5251819;28;20028;-73
2022/05/30 07:14:39;;;;;;;9.40;1.80;;;;;;;12.24;87.63;100338.22;5248412;28;20075;-73
2022/05/30 07:17:11;;;;;;;7.88;1.50;;;;;;;12.12;90.83;100341.38;5252040;28;20054;-72
2022/05/30 07:19:41;;;;;;;7.15;2.00;;;;;;;12.08;90.82;100341.59;5252524;28;20029;-73
2022/05/30 07:22:11;;;;;;;8.30;1.83;;;;;;;12.06;92.42;100349.53;5256380;28;20374;-73
2022/05/30 07:24:42;;;;;;;8.65;2.05;;;;;;;11.79;90.46;100345.50;5252146;28;20270;-72
2022/05/30 07:27:13;;;;;;;10.95;2.03;;;;;;;11.83;90.05;100347.09;5255783;28;20081;-72
2022/05/30 07:29:43;;;;;;;9.93;2.00;;;;;;;12.06;91.42;100343.44;5247668;28;20029;-72
2022/05/30 07:32:14;;;;;;;9.68;2.47;;;;;;;11.85;93.42;100350.50;5255326;28;20028;-72
2022/05/30 07:34:45;;;;;;;13.70;2.40;;;;;;;11.96;92.21;100356.09;5252433;28;20509;-73
2022/05/30 07:37:15;;;;;;;9.68;2.38;;;;;;;12.25;91.01;100354.75;5255035;28;20201;-73
2022/05/30 07:39:45;;;;;;;9.52;2.13;;;;;;;12.20;89.75;100352.38;5248222;28;20040;-73
2022/05/30 07:42:16;;;;;;;10.93;2.60;;;;;;;12.32;90.12;100359.66;5252390;28;20035;-71
2022/05/30 07:44:46;;;;;;;8.18;2.80;;;;;;;12.04;90.11;100354.00;5248002;28;20537;-71
2022/05/30 07:47:17;;;;;;;12.77;3.28;;;;;;;12.23;89.90;100351.38;5251544;28;20123;-71
2022/05/30 07:49:47;;;;;;;11.60;2.63;;;;;;;12.11;89.31;100351.94;5250800;28;20490;-71
2022/05/30 07:52:17;;;;;;;11.13;2.80;;;;;;;12.40;87.50;100357.56;5253429;28;20028;-71
2022/05/30 07:54:48;;;;;;;11.47;2.40;;;;;;;12.52;88.92;100346.50;5251335;28;20077;-72
2022/05/30 07:57:18;;;;;;;9.05;2.08;;;;;;;12.45;88.92;100354.72;5254497;28;20364;-72
2022/05/30 07:59:48;;;;;;;9.90;2.73;;;;;;;13.02;85.45;100350.16;5251927;28;20468;-71
2022/05/30 08:04:49;;;;;;;12.45;2.63;;;;;;;12.75;85.36;100353.25;5287062;22;20701;-72
2022/05/30 08:07:19;;;;;;;9.70;3.10;;;;;;;13.01;85.08;100357.22;5208767;28;20393;-72
2022/05/30 08:09:50;;;;;;;11.38;2.53;;;;;;;13.22;84.02;100352.69;5209487;28;20021;-73
2022/05/30 08:12:20;;;;;;;10.70;2.55;;;;;;;13.02;82.36;100363.28;5208818;28;20025;-73
2022/05/30 08:14:50;;;;;;;10.13;3.10;;;;;;;13.02;83.78;100360.66;5209559;28;20467;-72
2022/05/30 08:17:21;;;;;;;12.87;3.30;;;;;;;13.18;85.70;100361.63;5212474;28;20024;-72
2022/05/30 08:19:52;;;;;;;11.43;3.22;;;;;;;13.04;85.61;100361.47;5210424;28;20284;-72
2022/05/30 08:22:23;;;;;;;10.77;3.00;;;;;;;13.13;84.03;100358.38;5213125;28;20021;-72
2022/05/30 08:24:53;;;;;;;7.35;3.20;;;;;;;12.99;83.17;100366.94;5212254;28;20078;-72
2022/05/30 08:27:23;;;;;;;12.38;3.42;;;;;;;12.83;83.30;100365.06;5210164;28;20100;-72
2022/05/30 08:29:54;;;;;;;12.40;3.17;;;;;;;12.47;87.59;100369.44;5212017;28;20368;-73
2022/05/30 08:32:31;;;;;;;10.30;3.05;;;;;;;12.78;86.16;100371.50;5210680;28;20661;-73
2022/05/30 08:35:04;;;;;;;7.53;2.80;;;;;;;12.68;86.41;100370.22;5211026;28;20028;-73
2022/05/30 08:37:37;;;;;;;8.65;3.10;;;;;;;12.72;84.46;100372.63;5205805;28;20053;-73
2022/05/30 08:43:01;;;;;;;7.55;2.60;;;;;;;12.67;85.02;100371.13;5211318;28;20106;-72
2022/05/30 08:45:32;;;;;;;9.52;2.60;;;;;;;12.71;86.93;100370.94;5211371;28;20392;-73
2022/05/30 08:48:11;;;;;;;8.43;2.53;;;;;;;12.88;86.22;100378.84;5210726;28;20091;-73
2022/05/30 08:51:00;;;;;;;6.00;2.20;;;;;;;12.75;86.80;100377.72;5212017;28;20482;-72
2022/05/30 08:54:12;;;;;;;13.77;3.25;;;;;;;13.05;85.26;100376.28;5204980;28;20033;-72
2022/05/30 08:56:47;;;;;;;7.50;2.10;;;;;;;13.05;83.81;100382.38;5212313;28;20028;-73
2022/05/30 08:59:43;;;;;;;14.15;2.60;;;;;;;13.36;80.66;100381.69;5204980;28;20079;-73
2022/05/30 09:02:22;;;;;;;13.02;2.30;;;;;;;13.60;81.83;100380.47;5202872;28;20288;-72
2022/05/30 09:05:00;;;;;;;7.72;1.95;;;;;;;13.84;77.65;100377.44;5206402;28;20147;-72
2022/05/30 09:07:37;;;;;;;5.45;1.65;;;;;;;13.62;80.50;100386.50;5207410;28;20112;-73
2022/05/30 09:10:22;;;;;;;6.18;1.50;;;;;;;13.74;79.75;100385.88;5210329;28;20021;-72
2022/05/30 09:13:05;;;;;;;8.40;1.60;;;;;;;13.60;79.26;100393.63;5204142;28;20032;-72
2022/05/30 09:15:43;;;;;;;5.80;1.63;;;;;;;13.62;80.89;100391.75;5209208;28;20028;-72
2022/05/30 09:18:22;;;;;;;5.68;1.48;;;;;;;13.42;80.32;100391.91;5211813;28;20021;-72
2022/05/30 09:20:53;;;;;;;5.07;1.13;;;;;;;13.11;79.74;100396.97;5206684;28;20424;-72
2022/05/30 09:23:26;;;;;;;6.22;1.20;;;;;;;13.16;80.02;100389.72;5211110;28;20455;-72
2022/05/30 09:26:07;;;;;;;7.40;1.40;;;;;;;13.22;82.36;100394.69;5209729;28;20044;-71
2022/05/30 09:28:41;;;;;;;3.90;1.00;;;;;;;13.16;81.40;100394.97;5208559;28;20482;-73
2022/05/30 09:31:20;;;;;;;8.52;1.40;;;;;;;12.98;80.16;100401.97;5211644;28;20032;-72
2022/05/30 09:33:57;;;;;;;7.07;1.10;;;;;;;12.98;80.20;100402.88;5205751;28;20040;-73
2022/05/30 09:36:30;;;;;;;9.63;1.40;;;;;;;13.17;81.20;100399.28;5208902;28;20041;-73
2022/05/30 09:39:15;;;;;;;5.85;1.27;;;;;;;13.34;82.25;100399.31;5208607;28;20025;-73
2022/05/30 09:41:53;;;;;;;6.20;1.42;;;;;;;13.39;80.78;100400.78;5205947;28;20076;-72
2022/05/30 09:44:39;;;;;;;8.65;1.67;;;;;;;13.70;80.84;100395.69;5209962;28;20025;-72
2022/05/30 09:47:17;;;;;;;5.78;1.27;;;;;;;13.68;79.66;100401.94;5210352;28;20102;-72
2022/05/30 09:49:53;;;;;;;4.47;0.95;;;;;;;13.84;79.77;100395.84;5204895;28;20034;-72
2022/05/30 09:52:35;;;;;;;6.35;1.20;;;;;;;13.93;78.38;100403.22;5210531;28;20025;-73
2022/05/30 09:55:26;;;;;;;5.03;1.05;;;;;;;13.98;76.77;100398.59;5211214;28;20497;-72
2022/05/30 09:57:58;;;;;;;5.13;1.30;;;;;;;13.92;78.02;100395.44;5206542;28;20100;-73
2022/05/30 10:00:51;;;;;;;5.90;1.10;;;;;;;14.24;77.35;100399.91;5209274;28;20658;-73
2022/05/30 10:03:28;;;;;;;3.72;1.00;;;;;;;14.25;74.12;100405.06;5205513;28;20487;-73
2022/05/30 10:06:13;;;;;;;5.85;1.20;;;;;;;14.03;79.21;100400.97;5206217;28;20026;-73
2022/05/30 10:08:44;;;;;;;5.55;1.40;;;;;;;14.45;75.10;100393.47;5205111;28;20068;-72
2022/05/30 10:11:32;;;;;;;7.75;1.15;;;;;;;14.62;75.94;100396.88;5201948;28;20036;-72
2022/05/30 10:14:24;;;;;;;4.22;1.00;;;;;;;14.75;72.26;100397.06;5209029;28;20087;-71
2022/05/30 10:16:58;;;;;;;4.50;1.15;;;;;;;14.85;73.59;100399.94;5206648;28;20344;-72
2022/05/30 10:19:31;;;;;;;6.15;1.40;;;;;;;14.76;72.55;100401.41;5191656;28;20040;-71
2022/05/30 10:28:40;;;;;;;6.78;1.33;;;;;;;15.05;71.74;100406.72;5207675;28;20467;-72
2022/05/30 10:31:39;;;;;;;4.30;1.30;;;;;;;15.13;70.35;100413.25;5212169;28;20061;-72
2022/05/30 10:35:07;;;;;;;7.78;1.55;;;;;;;14.81;70.48;100413.38;5214233;28;20025;-72
2022/05/30 10:37:44;;;;;;;8.57;1.30;;;;;;;15.15;68.77;100419.28;5158465;28;20484;-73
2022/05/30 10:40:22;;;;;;;6.07;1.40;;;;;;;15.00;69.36;100417.50;5156516;28;20542;-71
2022/05/30 10:43:11;;;;;;;5.68;1.52;;;;;;;14.69;69.56;100423.69;5200584;28;20118;-72
2022/05/30 10:46:00;;;;;;;7.00;1.63;;;;;;;14.84;68.47;100419.28;5215367;28;20474;-72
2022/05/30 10:49:13;;;;;;;7.18;1.50;;;;;;;14.94;71.03;100415.22;5211889;28;20037;-72
2022/05/30 10:52:01;;;;;;;8.50;1.20;;;;;;;15.20;69.67;100417.22;5202542;28;20037;-72
2022/05/30 10:54:43;;;;;;;5.35;1.17;;;;;;;15.51;70.01;100411.94;5212754;28;20501;-73
2022/05/30 10:57:25;;;;;;;4.65;1.20;;;;;;;15.85;67.53;100421.34;5209834;28;20021;-73
2022/05/30 11:00:02;;;;;;;4.20;1.83;;;;;;;15.92;66.61;100420.91;5208766;28;20501;-73
2022/05/30 11:02:57;;;;;;;4.78;1.65;;;;;;;15.72;67.64;100421.19;5212298;28;20025;-73
2022/05/30 11:05:39;;;;;;;4.78;1.27;;;;;;;15.51;67.20;100422.47;5210799;28;20406;-73
2022/05/30 11:08:09;;;;;;;4.07;1.23;;;;;;;15.49;63.50;100419.06;5210048;28;20413;-72
2022/05/30 11:10:52;;;;;;;5.17;1.47;;;;;;;15.45;64.38;100414.94;5211157;28;20021;-72
2022/05/30 11:13:22;;;;;;;5.53;1.65;;;;;;;15.59;66.96;100412.34;5209777;28;20276;-73
2022/05/30 11:15:59;;;;;;;4.53;1.37;;;;;;;15.76;66.15;100406.06;5215075;28;20485;-73
2022/05/30 11:18:39;;;;;;;10.00;1.63;;;;;;;15.94;66.83;100411.09;5213898;28;20041;-73
2022/05/30 11:21:20;;;;;;;6.65;1.70;;;;;;;15.58;67.80;100408.00;5213208;28;20095;-72
2022/05/30 11:23:51;;;;;;;6.80;1.33;;;;;;;15.40;67.76;100406.41;5208527;28;20013;-73
2022/05/30 11:26:40;;;;;;;5.90;1.60;;;;;;;15.51;69.38;100406.66;5213949;28;20028;-73
2022/05/30 11:29:41;;;;;;;7.50;1.50;;;;;;;15.37;68.66;100408.41;5210763;28;20068;-71
2022/05/30 11:32:17;;;;;;;8.00;1.70;;;;;;;15.28;69.25;100412.38;5213909;28;20617;-72
2022/05/30 11:35:03;;;;;;;3.88;1.40;;;;;;;15.43;65.64;100414.16;5206599;28;20021;-72
2022/05/30 11:37:49;;;;;;;4.13;1.02;;;;;;;15.28;67.53;100420.28;5211884;28;20032;-70
2022/05/30 11:40:20;;;;;;;5.68;1.48;;;;;;;14.88;68.92;100410.28;5205406;28;20469;-73
2022/05/30 11:43:09;;;;;;;6.17;1.50;;;;;;;15.45;68.69;100409.66;5208257;28;20124;-73
2022/05/30 11:45:57;;;;;;;8.13;1.45;;;;;;;15.56;67.09;100407.22;5211310;28;20296;-72
2022/05/30 11:48:49;;;;;;;6.53;1.40;;;;;;;15.97;66.08;100404.78;5209067;28;20029;-72
2022/05/30 11:51:31;;;;;;;9.45;1.52;;;;;;;16.18;67.55;100406.13;5207789;28;20017;-70
2022/05/30 11:54:16;;;;;;;5.55;1.33;;;;;;;15.77;67.53;100408.63;5210458;28;20104;-73
2022/05/30 11:57:37;;;;;;;4.63;1.00;;;;;;;15.55;65.99;100413.44;5204668;28;20029;-73
2022/05/30 12:00:15;;;;;;;2.65;0.80;;;;;;;15.38;65.77;100420.63;5169579;28;20109;-72
2022/05/30 12:02:57;;;;;;;2.72;0.90;;;;;;;15.69;65.81;100413.47;5205242;28;20104;-73
2022/05/30 12:05:49;;;;;;;4.35;0.77;;;;;;;15.57;63.66;100419.47;5210356;28;20052;-72
2022/05/30 12:08:24;;;;;;;3.78;0.85;;;;;;;15.09;65.26;100419.63;5206287;28;20112;-72
2022/05/30 12:11:19;;;;;;;4.25;1.00;;;;;;;15.20;65.98;100422.47;5209385;28;20087;-70
2022/05/30 12:14:11;;;;;;;5.72;1.42;;;;;;;15.37;66.18;100422.41;5204893;28;20116;-73
2022/05/30 12:16:57;;;;;;;3.78;1.02;;;;;;;15.17;67.46;100427.09;5208692;28;20021;-72